createdAt,value
2022-12-15T00:02:19.649Z,-3.20
2022-12-15T00:10:38.211Z,-3.20
2022-12-15T00:13:30.807Z,-3.30
2022-12-15T00:21:48.595Z,-3.10
2022-12-15T00:24:33.864Z,-3.10
2022-12-15T00:30:05.665Z,-3.10
2022-12-15T00:32:51.659Z,-3.20
2022-12-15T00:35:37.536Z,-3.30
2022-12-15T00:38:27.847Z,-3.50
2022-12-15T00:40:59.203Z,-3.20
2022-12-15T00:43:30.941Z,-3.30
2022-12-15T00:59:32.473Z,-3.30
2022-12-15T01:10:37.914Z,-3.10
2022-12-15T01:13:24.258Z,-3.10
2022-12-15T01:41:09.746Z,-3.20
2022-12-15T01:43:39.516Z,-3.30
2022-12-15T01:46:16.067Z,-3.30
2022-12-15T01:51:30.378Z,-3.30
2022-12-15T01:56:37.048Z,-3.40
2022-12-15T02:04:01.053Z,-3.50
2022-12-15T02:06:28.934Z,-3.60
2022-12-15T02:09:00.319Z,-3.60
2022-12-15T02:14:09.511Z,-3.60
2022-12-15T02:27:12.263Z,-3.70
2022-12-15T02:30:17.149Z,-3.70
2022-12-15T02:32:59.141Z,-3.70
2022-12-15T02:42:55.374Z,-3.80
2022-12-15T02:45:35.566Z,-3.80
2022-12-15T02:48:23.682Z,-3.80
2022-12-15T02:56:20.988Z,-3.90
2022-12-15T03:03:56.928Z,-4.00
2022-12-15T04:07:56.142Z,-4.10
2022-12-15T04:13:08.339Z,-4.10
2022-12-15T04:15:37.962Z,-4.10
2022-12-15T04:18:09.934Z,-4.10
2022-12-15T04:20:39.009Z,-4.10
2022-12-15T04:31:37.561Z,-4.10
2022-12-15T04:34:25.666Z,-4.10
2022-12-15T04:37:12.447Z,-4.00
2022-12-15T04:40:03.422Z,-3.90
2022-12-15T04:42:51.015Z,-3.90
2022-12-15T04:45:39.936Z,-3.90
2022-12-15T05:13:26.174Z,-3.90
2022-12-15T06:29:11.391Z,-3.60
2022-12-15T06:34:13.730Z,-3.60
2022-12-15T06:39:11.324Z,-3.70
2022-12-15T06:41:38.715Z,-3.70
2022-12-15T06:56:34.614Z,-2.40
2022-12-15T07:06:36.568Z,-3.40
2022-12-15T07:41:19.736Z,-3.20
2022-12-15T08:01:13.250Z,-3.10
2022-12-15T08:06:13.425Z,-3.10
2022-12-15T08:08:50.777Z,-3.00
2022-12-15T09:00:11.654Z,-2.70
2022-12-15T09:10:07.358Z,-2.60
2022-12-15T09:49:55.685Z,-2.10
2022-12-15T09:52:31.357Z,-2.10
2022-12-15T09:54:59.292Z,-2.10
2022-12-15T09:57:56.171Z,-2.20
2022-12-15T10:00:32.938Z,-2.10
2022-12-15T10:03:40.742Z,-2.00
2022-12-15T10:06:20.092Z,-2.00
2022-12-15T10:08:58.517Z,-2.00
2022-12-15T10:11:44.296Z,-2.00
2022-12-15T10:21:58.275Z,-1.90
2022-12-15T10:25:07.952Z,-1.90
2022-12-15T10:27:54.756Z,-1.90
2022-12-15T10:35:28.771Z,-1.80
2022-12-15T10:38:00.403Z,-1.70
2022-12-15T10:40:56.780Z,-1.70
2022-12-15T10:46:02.100Z,-1.60
2022-12-15T10:51:15.696Z,-1.60
2022-12-15T10:59:42.203Z,-1.40
2022-12-15T11:06:25.144Z,-1.30
2022-12-15T11:08:55.730Z,-1.30
2022-12-15T11:14:21.409Z,-1.20
2022-12-15T11:17:06.958Z,-1.20
2022-12-15T11:22:55.347Z,-1.10
2022-12-15T11:25:44.822Z,-1.10
2022-12-15T11:28:38.892Z,-1.10
2022-12-15T11:31:28.977Z,-1.20
2022-12-15T11:38:58.108Z,-1.10
2022-12-15T11:41:59.123Z,-1.10
2022-12-15T11:44:37.173Z,-1.10
2022-12-15T11:47:45.025Z,-1.00
2022-12-15T11:50:33.611Z,-1.00
2022-12-15T11:53:33.263Z,-1.00
2022-12-15T11:56:32.872Z,-1.00
2022-12-15T11:59:27.394Z,-0.90
2022-12-15T12:05:19.347Z,-0.80
2022-12-15T12:07:58.017Z,-0.80
2022-12-15T12:15:41.897Z,-0.70
2022-12-15T12:18:34.838Z,-0.60
2022-12-15T12:25:16.737Z,-0.60
2022-12-15T12:28:05.695Z,-0.60
2022-12-15T12:30:43.368Z,-0.60
2022-12-15T12:33:34.964Z,-0.60
2022-12-15T12:36:13.393Z,-0.60
2022-12-15T12:38:48.793Z,-0.60
2022-12-15T12:41:36.181Z,-0.60
2022-12-15T12:44:29.256Z,-0.60
2022-12-15T12:46:58.786Z,-0.60
2022-12-15T12:52:30.070Z,-0.50
2022-12-15T12:55:14.523Z,-0.50
2022-12-15T12:57:43.611Z,-0.50
2022-12-15T13:00:22.395Z,-0.50
2022-12-15T13:05:38.150Z,-0.60
2022-12-15T13:10:40.862Z,-0.50
2022-12-15T13:13:36.547Z,-0.50
2022-12-15T13:16:26.713Z,-0.50
2022-12-15T13:18:57.921Z,-0.50
2022-12-15T13:21:44.955Z,-0.50
2022-12-15T13:24:29.759Z,-0.50
2022-12-15T13:27:08.994Z,-0.50
2022-12-15T13:29:53.873Z,-0.50
2022-12-15T13:32:29.489Z,-0.50
2022-12-15T13:37:54.292Z,-0.40
2022-12-15T13:40:35.475Z,-0.40
2022-12-15T13:43:05.596Z,-0.40
2022-12-15T13:48:39.397Z,-0.30
2022-12-15T13:53:49.718Z,-0.40
2022-12-15T13:56:45.934Z,-0.40
2022-12-15T14:09:46.869Z,-0.40
2022-12-15T14:14:49.175Z,-0.40
2022-12-15T14:17:18.753Z,-0.40
2022-12-15T14:19:50.992Z,-0.40
2022-12-15T14:22:30.314Z,-0.30
2022-12-15T14:25:23.820Z,-0.30
2022-12-15T14:33:08.368Z,-0.20
2022-12-15T14:35:44.450Z,-0.20
2022-12-15T14:38:25.845Z,-0.20
2022-12-15T14:40:57.470Z,-0.10
2022-12-15T14:43:33.264Z,-0.10
2022-12-15T14:46:13.923Z,-0.10
2022-12-15T14:48:57.596Z,0.00
2022-12-15T14:51:31.487Z,0.10
2022-12-15T15:07:56.985Z,0.30
2022-12-15T15:10:29.451Z,0.30
2022-12-15T15:12:56.462Z,1.50
2022-12-15T15:15:26.626Z,0.10
2022-12-15T15:17:55.729Z,0.00
2022-12-15T15:20:24.462Z,-0.10
2022-12-15T15:23:19.011Z,-0.20
2022-12-15T15:25:56.658Z,-0.30
2022-12-15T15:28:28.978Z,-0.50
2022-12-15T15:31:05.417Z,-0.50
2022-12-15T15:33:33.109Z,-0.60
2022-12-15T15:36:02.232Z,-0.70
2022-12-15T15:38:35.450Z,1.30
2022-12-15T15:41:22.759Z,-0.70
2022-12-15T15:43:49.599Z,-0.60
2022-12-15T15:46:21.355Z,-0.80
2022-12-15T15:48:55.434Z,1.50
2022-12-15T15:51:24.362Z,-0.50
2022-12-15T15:53:51.861Z,-0.60
2022-12-15T15:56:19.538Z,1.40
2022-12-15T16:01:13.885Z,-0.70
2022-12-15T16:03:41.872Z,-0.60
2022-12-15T16:06:17.251Z,-0.70
2022-12-15T16:08:45.562Z,-1.00
2022-12-15T16:13:40.244Z,-0.80
2022-12-15T16:16:15.071Z,-0.90
2022-12-15T16:18:41.991Z,-1.10
2022-12-15T16:21:12.288Z,-1.30
2022-12-15T16:28:34.135Z,-1.40
2022-12-15T16:31:01.604Z,2.00
2022-12-15T16:33:28.683Z,2.10
2022-12-15T16:35:55.692Z,-1.80
2022-12-15T16:43:19.772Z,-1.60
2022-12-15T16:45:49.581Z,0.70
2022-12-15T16:48:17.175Z,0.90
2022-12-15T16:50:48.368Z,-1.80
2022-12-15T16:53:37.628Z,-1.80
2022-12-15T16:56:07.154Z,-1.90
2022-12-15T16:58:36.086Z,-1.70
2022-12-15T17:03:31.148Z,-1.70
2022-12-15T17:06:06.458Z,-1.70
2022-12-15T17:08:49.371Z,-1.70
2022-12-15T17:11:21.999Z,-1.80
2022-12-15T17:13:51.426Z,-1.80
2022-12-15T17:16:20.752Z,-1.80
2022-12-15T17:18:48.360Z,0.00
2022-12-15T17:21:32.120Z,-1.90
2022-12-15T17:24:07.764Z,-2.00
2022-12-15T17:26:36.804Z,-2.10
2022-12-15T17:29:09.461Z,-2.20
2022-12-15T17:31:36.504Z,-2.40
2022-12-15T17:34:24.557Z,-2.20
2022-12-15T17:39:20.627Z,-2.20
2022-12-15T17:42:04.583Z,0.50
2022-12-15T17:44:37.482Z,-2.40
2022-12-15T17:47:30.614Z,-2.50
2022-12-15T17:52:29.205Z,-2.50
2022-12-15T17:54:57.264Z,-2.50
2022-12-15T17:57:24.231Z,-2.60
2022-12-15T18:02:18.562Z,-2.60
2022-12-15T18:04:45.895Z,-2.60
2022-12-15T18:07:23.784Z,-2.60
2022-12-15T18:09:52.095Z,-2.50
2022-12-15T18:12:24.589Z,-3.30
2022-12-15T18:17:19.969Z,-2.30
2022-12-15T18:22:20.411Z,-2.60
2022-12-15T18:27:24.093Z,-2.80
2022-12-15T18:32:20.273Z,-2.60
2022-12-15T18:37:20.217Z,-2.80
2022-12-15T18:39:47.419Z,-2.80
2022-12-15T18:42:19.626Z,-2.80
2022-12-15T18:44:50.075Z,-2.60
2022-12-15T18:47:18.983Z,-2.70
2022-12-15T18:52:26.512Z,-2.60
2022-12-15T18:54:55.821Z,-2.60
2022-12-15T18:57:30.320Z,-2.00
2022-12-15T19:00:08.005Z,-2.40
2022-12-15T19:05:02.500Z,-2.50
2022-12-15T19:07:29.423Z,-2.40
2022-12-15T19:09:56.472Z,-2.30
2022-12-15T19:14:51.838Z,-2.80
2022-12-15T19:17:40.253Z,-2.80
2022-12-15T19:20:46.230Z,-2.80
2022-12-15T19:23:15.263Z,-2.70
2022-12-15T19:25:43.686Z,-2.70
2022-12-15T19:28:23.649Z,-2.70
2022-12-15T19:35:50.867Z,-2.80
2022-12-15T19:38:24.781Z,-2.70
2022-12-15T19:40:55.897Z,-2.90
2022-12-15T19:43:24.570Z,-2.90
2022-12-15T19:45:52.680Z,-2.90
2022-12-15T19:50:52.226Z,-2.90
2022-12-15T19:53:28.595Z,-2.90
2022-12-15T19:56:01.631Z,-2.90
2022-12-15T19:58:30.163Z,-2.90
2022-12-15T20:01:04.563Z,-3.00
2022-12-15T20:06:01.703Z,-3.00
2022-12-15T20:08:34.150Z,-3.10
2022-12-15T20:11:01.399Z,-3.00
2022-12-15T20:15:56.642Z,-3.30
2022-12-15T20:23:26.333Z,-3.40
2022-12-15T20:25:54.290Z,-3.60
2022-12-15T20:28:25.959Z,-3.60
2022-12-15T20:33:20.671Z,-4.00
2022-12-15T20:35:49.079Z,-3.60
2022-12-15T20:38:29.334Z,-3.50
2022-12-15T20:40:56.552Z,-3.70
2022-12-15T20:43:24.493Z,-3.70
2022-12-15T20:46:07.522Z,-3.70
2022-12-15T20:48:36.855Z,-3.70
2022-12-15T20:51:09.209Z,-3.80
2022-12-15T20:56:06.331Z,-3.80
2022-12-15T20:58:40.770Z,-4.00
2022-12-15T21:01:19.443Z,-4.00
2022-12-15T21:06:14.707Z,-3.40
2022-12-15T21:08:41.843Z,-3.80
2022-12-15T21:11:21.376Z,-4.00
2022-12-15T21:13:49.473Z,-3.80
2022-12-15T21:16:26.048Z,-4.00
2022-12-15T21:21:44.953Z,-3.60
2022-12-15T21:24:32.220Z,-3.80
2022-12-15T21:26:59.087Z,-3.50
2022-12-15T21:29:28.615Z,-3.80
2022-12-15T21:36:55.330Z,-3.90
2022-12-15T21:39:29.306Z,-3.90
2022-12-15T21:41:59.718Z,-3.90
2022-12-15T21:46:54.659Z,-3.60
2022-12-15T21:49:21.799Z,-3.80
2022-12-15T21:52:00.366Z,-3.70
2022-12-15T21:54:31.816Z,-3.40
2022-12-15T21:57:00.510Z,-3.70
2022-12-15T21:59:30.532Z,-3.90
2022-12-15T22:01:57.518Z,-3.80
2022-12-15T22:04:30.392Z,-3.80
2022-12-15T22:06:57.327Z,-3.70
2022-12-15T22:11:55.763Z,-3.80
2022-12-15T22:14:29.328Z,-3.90
2022-12-15T22:16:57.192Z,-3.90
2022-12-15T22:21:51.986Z,-4.10
2022-12-15T22:24:19.572Z,-4.10
2022-12-15T22:26:47.180Z,-4.20
2022-12-15T22:29:20.644Z,-4.20
2022-12-15T22:31:49.483Z,-4.30
2022-12-15T22:34:21.966Z,-3.90
2022-12-15T22:36:50.040Z,-4.30
2022-12-15T22:39:18.854Z,-4.40
2022-12-15T22:41:49.916Z,-4.50
2022-12-15T22:44:23.864Z,-4.40
2022-12-15T22:46:52.400Z,-4.40
2022-12-15T22:49:24.115Z,-4.50
2022-12-15T22:54:27.012Z,-4.70
2022-12-15T22:57:05.993Z,-4.40
2022-12-15T22:59:41.268Z,-4.50
2022-12-15T23:02:09.063Z,-4.50
2022-12-15T23:07:05.713Z,-4.10
2022-12-15T23:14:54.161Z,-4.30
2022-12-15T23:27:11.765Z,-4.60
2022-12-15T23:32:06.250Z,-4.80
2022-12-15T23:34:33.167Z,-4.60
2022-12-15T23:37:00.846Z,-4.50
2022-12-15T23:39:27.823Z,-4.70
2022-12-15T23:44:21.972Z,-4.30
2022-12-15T23:46:48.904Z,-4.60
2022-12-15T23:49:15.861Z,-4.60
2022-12-15T23:54:10.280Z,-4.80
2022-12-15T23:56:39.367Z,-4.60
